createdAt,value
2022-11-21T00:01:19.482Z,26.20
2022-11-21T00:03:47.739Z,26.88
2022-11-21T00:06:19.413Z,24.45
2022-11-21T00:08:49.048Z,25.35
2022-11-21T00:11:18.774Z,25.05
2022-11-21T00:13:50.569Z,24.95
2022-11-21T00:16:19.352Z,24.50
2022-11-21T00:18:47.252Z,24.77
2022-11-21T00:21:17.588Z,22.73
2022-11-21T00:23:46.246Z,23.65
2022-11-21T00:26:15.956Z,24.05
2022-11-21T00:28:46.236Z,23.85
2022-11-21T00:31:20.731Z,23.70
2022-11-21T00:33:48.668Z,22.85
2022-11-21T00:36:18.192Z,25.20
2022-11-21T00:38:46.483Z,25.02
2022-11-21T00:41:14.681Z,22.25
2022-11-21T00:43:42.778Z,24.08
2022-11-21T00:46:12.356Z,22.70
2022-11-21T00:48:40.601Z,22.67
2022-11-21T00:51:11.945Z,22.85
2022-11-21T00:53:41.555Z,22.50
2022-11-21T00:56:09.786Z,23.50
2022-11-21T00:58:37.839Z,24.23
2022-11-21T01:01:10.548Z,22.35
2022-11-21T01:03:40.858Z,23.35
2022-11-21T01:06:10.879Z,23.50
2022-11-21T01:08:40.426Z,22.33
2022-11-21T01:11:10.180Z,26.30
2022-11-21T01:13:39.179Z,22.85
2022-11-21T01:16:08.850Z,23.98
2022-11-21T01:18:37.278Z,23.90
2022-11-21T01:21:08.557Z,23.52
2022-11-21T01:23:36.586Z,24.30
2022-11-21T01:26:11.337Z,25.45
2022-11-21T01:28:41.831Z,23.20
2022-11-21T01:31:11.811Z,24.92
2022-11-21T01:33:40.893Z,25.88
2022-11-21T01:36:12.592Z,23.55
2022-11-21T01:38:42.819Z,26.35
2022-11-21T01:41:11.841Z,25.08
2022-11-21T01:43:40.614Z,25.02
2022-11-21T01:46:15.915Z,23.77
2022-11-21T01:48:49.790Z,25.77
2022-11-21T01:51:22.439Z,25.05
2022-11-21T01:53:57.157Z,24.27
2022-11-21T01:56:25.916Z,25.73
2022-11-21T01:58:58.762Z,24.10
2022-11-21T02:01:27.640Z,24.38
2022-11-21T02:03:57.418Z,22.40
2022-11-21T02:06:27.294Z,25.33
2022-11-21T02:08:55.826Z,24.95
2022-11-21T02:11:30.497Z,24.95
2022-11-21T02:14:01.064Z,26.50
2022-11-21T02:16:29.187Z,25.10
2022-11-21T02:18:57.356Z,26.40
2022-11-21T02:21:34.002Z,24.83
2022-11-21T02:24:06.373Z,25.92
2022-11-21T02:26:41.169Z,26.15
2022-11-21T02:29:09.449Z,25.48
2022-11-21T02:31:37.736Z,25.88
2022-11-21T02:34:06.613Z,24.98
2022-11-21T02:36:45.918Z,26.55
2022-11-21T02:39:18.731Z,26.02
2022-11-21T02:41:57.199Z,25.40
2022-11-21T02:44:29.876Z,25.40
2022-11-21T02:46:58.398Z,25.65
2022-11-21T02:49:43.102Z,25.23
2022-11-21T02:52:12.069Z,26.27
2022-11-21T02:54:40.101Z,24.42
2022-11-21T02:57:14.652Z,25.58
2022-11-21T02:59:42.963Z,26.95
2022-11-21T03:02:13.357Z,28.48
2022-11-21T03:04:42.459Z,25.67
2022-11-21T03:07:10.499Z,26.00
2022-11-21T03:09:39.262Z,26.67
2022-11-21T03:12:13.636Z,27.20
2022-11-21T03:14:42.266Z,26.02
2022-11-21T03:17:10.575Z,25.33
2022-11-21T03:19:38.594Z,25.33
2022-11-21T03:22:06.811Z,26.23
2022-11-21T03:24:35.398Z,27.88
2022-11-21T03:27:03.378Z,26.30
2022-11-21T03:29:33.662Z,25.33
2022-11-21T03:32:02.074Z,26.10
2022-11-21T03:34:30.218Z,24.92
2022-11-21T03:36:58.708Z,25.95
2022-11-21T03:39:26.603Z,26.83
2022-11-21T03:41:54.980Z,26.15
2022-11-21T03:44:23.154Z,26.52
2022-11-21T03:46:58.864Z,25.13
2022-11-21T03:49:26.850Z,25.98
2022-11-21T03:51:54.908Z,25.58
2022-11-21T03:54:23.421Z,24.63
2022-11-21T03:56:51.334Z,26.50
2022-11-21T03:59:19.870Z,26.00
2022-11-21T04:01:49.460Z,25.90
2022-11-21T04:04:19.631Z,24.48
2022-11-21T04:06:48.651Z,26.27
2022-11-21T04:09:16.715Z,26.83
2022-11-21T04:11:45.174Z,26.67
2022-11-21T04:14:13.504Z,26.05
2022-11-21T04:16:43.222Z,26.48
2022-11-21T04:19:11.182Z,26.92
2022-11-21T04:21:43.882Z,27.30
2022-11-21T04:24:12.050Z,27.27
2022-11-21T04:26:39.969Z,25.38
2022-11-21T04:29:08.233Z,26.08
2022-11-21T04:31:36.627Z,26.77
2022-11-21T04:34:05.236Z,27.95
2022-11-21T04:36:34.065Z,24.38
2022-11-21T04:39:03.426Z,27.27
2022-11-21T04:41:31.629Z,25.02
2022-11-21T04:44:00.842Z,24.15
2022-11-21T04:46:29.720Z,26.77
2022-11-21T04:49:02.152Z,25.50
2022-11-21T04:51:30.528Z,24.38
2022-11-21T04:53:58.477Z,27.23
2022-11-21T04:56:28.162Z,26.23
2022-11-21T04:58:56.281Z,24.40
2022-11-21T05:01:24.465Z,27.33
2022-11-21T05:03:53.377Z,27.33
2022-11-21T05:06:22.459Z,28.88
2022-11-21T05:08:53.512Z,29.35
2022-11-21T05:11:39.804Z,28.85
2022-11-21T05:14:09.804Z,30.08
2022-11-21T05:16:37.860Z,28.17
2022-11-21T05:19:09.716Z,28.15
2022-11-21T05:21:39.169Z,28.92
2022-11-21T05:24:08.139Z,27.95
2022-11-21T05:26:38.294Z,28.30
2022-11-21T05:29:07.227Z,28.38
2022-11-21T05:31:37.367Z,29.52
2022-11-21T05:34:05.531Z,30.10
2022-11-21T05:36:42.242Z,27.58
2022-11-21T05:39:10.232Z,31.60
2022-11-21T05:41:38.355Z,29.65
2022-11-21T05:44:06.012Z,32.17
2022-11-21T05:46:36.644Z,28.55
2022-11-21T05:49:04.670Z,29.55
2022-11-21T05:51:32.687Z,32.00
2022-11-21T05:54:01.351Z,31.15
2022-11-21T05:56:29.324Z,28.98
2022-11-21T05:58:57.742Z,30.02
2022-11-21T06:01:40.528Z,30.40
2022-11-21T06:04:10.566Z,30.35
2022-11-21T06:06:38.746Z,31.67
2022-11-21T06:09:06.738Z,30.92
2022-11-21T06:11:34.735Z,32.72
2022-11-21T06:14:03.200Z,31.95
2022-11-21T06:16:34.404Z,30.60
2022-11-21T06:19:02.361Z,30.23
2022-11-21T06:21:34.843Z,33.90
2022-11-21T06:24:06.634Z,31.58
2022-11-21T06:26:38.660Z,30.83
2022-11-21T06:31:34.810Z,28.52
2022-11-21T06:34:03.335Z,28.30
2022-11-21T06:36:32.817Z,30.80
2022-11-21T06:39:01.102Z,31.98
2022-11-21T06:41:32.005Z,32.17
2022-11-21T06:44:01.760Z,32.13
2022-11-21T06:46:32.743Z,31.02
2022-11-21T06:49:01.869Z,34.33
2022-11-21T06:51:30.110Z,30.33
2022-11-21T06:54:00.074Z,29.90
2022-11-21T06:56:30.116Z,30.48
2022-11-21T06:59:01.614Z,31.50
2022-11-21T07:01:30.591Z,29.77
2022-11-21T07:03:58.611Z,28.40
2022-11-21T07:06:27.250Z,31.75
2022-11-21T07:11:45.165Z,30.42
2022-11-21T07:14:13.129Z,30.80
2022-11-21T07:16:41.702Z,30.42
2022-11-21T07:19:10.044Z,29.13
2022-11-21T07:21:39.252Z,30.42
2022-11-21T07:24:08.367Z,32.90
2022-11-21T07:26:36.785Z,33.78
2022-11-21T07:29:06.457Z,34.00
2022-11-21T07:31:34.648Z,33.85
2022-11-21T07:34:03.866Z,30.80
2022-11-21T07:36:33.839Z,33.65
2022-11-21T07:39:06.495Z,31.95
2022-11-21T07:41:34.670Z,33.55
2022-11-21T07:44:02.950Z,32.60
2022-11-21T07:46:32.463Z,34.10
2022-11-21T07:49:03.833Z,35.30
2022-11-21T07:51:32.135Z,33.95
2022-11-21T07:54:03.552Z,37.20
2022-11-21T07:56:31.528Z,36.28
2022-11-21T07:58:59.453Z,36.67
2022-11-21T08:01:27.743Z,36.90
2022-11-21T08:03:57.095Z,36.90
2022-11-21T08:06:27.992Z,35.33
2022-11-21T08:08:56.411Z,36.15
2022-11-21T08:11:25.865Z,33.20
2022-11-21T08:13:54.036Z,35.20
2022-11-21T08:16:22.768Z,32.72
2022-11-21T08:18:51.249Z,32.95
2022-11-21T08:21:20.534Z,33.10
2022-11-21T08:23:49.180Z,33.35
2022-11-21T08:26:18.153Z,31.27
2022-11-21T08:28:46.411Z,29.88
2022-11-21T08:31:14.679Z,30.63
2022-11-21T08:33:44.106Z,27.70
2022-11-21T08:36:12.570Z,27.88
2022-11-21T08:38:42.080Z,25.98
2022-11-21T08:41:31.342Z,23.35
2022-11-21T08:44:02.660Z,24.85
2022-11-21T08:46:33.596Z,23.60
2022-11-21T08:49:08.793Z,23.70
2022-11-21T08:51:37.190Z,23.08
2022-11-21T08:54:10.354Z,23.60
2022-11-21T08:56:38.590Z,24.25
2022-11-21T08:59:11.051Z,23.80
2022-11-21T09:01:39.473Z,22.30
2022-11-21T09:04:07.985Z,22.65
2022-11-21T09:06:36.805Z,23.40
2022-11-21T09:09:07.681Z,25.23
2022-11-21T09:11:39.423Z,23.23
2022-11-21T09:14:40.237Z,24.38
2022-11-21T09:17:32.482Z,23.48
2022-11-21T09:20:00.873Z,20.80
2022-11-21T09:22:32.668Z,22.48
2022-11-21T09:25:02.044Z,22.98
2022-11-21T09:27:31.613Z,20.52
2022-11-21T09:29:59.605Z,22.48
2022-11-21T09:32:29.054Z,24.25
2022-11-21T09:34:57.899Z,22.50
2022-11-21T09:37:27.630Z,22.00
2022-11-21T09:39:55.937Z,21.85
2022-11-21T09:42:48.479Z,23.48
2022-11-21T09:45:20.286Z,24.17
2022-11-21T09:47:50.224Z,21.35
2022-11-21T09:50:26.562Z,21.88
2022-11-21T09:53:02.504Z,20.80
2022-11-21T09:55:38.623Z,19.35
2022-11-21T09:58:15.777Z,21.52
2022-11-21T10:00:44.676Z,19.40
2022-11-21T10:03:20.986Z,19.25
2022-11-21T10:05:53.940Z,20.95
2022-11-21T10:08:30.888Z,21.60
2022-11-21T10:11:11.433Z,18.63
2022-11-21T10:13:54.136Z,20.33
2022-11-21T10:16:27.185Z,19.35
2022-11-21T10:19:09.789Z,20.20
2022-11-21T10:21:51.483Z,19.92
2022-11-21T10:24:34.563Z,20.08
2022-11-21T10:27:07.718Z,21.65
2022-11-21T10:29:39.520Z,20.98
2022-11-21T10:32:14.588Z,20.88
2022-11-21T10:34:44.535Z,20.08
2022-11-21T10:37:17.806Z,20.45
2022-11-21T10:39:48.169Z,20.40
2022-11-21T10:42:24.895Z,22.48
2022-11-21T10:45:11.924Z,21.38
2022-11-21T10:47:40.037Z,19.70
2022-11-21T10:50:20.069Z,22.60
2022-11-21T10:52:51.769Z,21.27
2022-11-21T10:55:20.253Z,19.17
2022-11-21T10:57:49.197Z,19.35
2022-11-21T11:00:24.085Z,21.08
2022-11-21T11:03:06.705Z,20.70
2022-11-21T11:05:37.936Z,22.58
2022-11-21T11:08:09.099Z,20.27
2022-11-21T11:13:49.968Z,20.60
2022-11-21T11:16:22.169Z,20.52
2022-11-21T11:18:56.895Z,19.17
2022-11-21T11:21:26.161Z,19.05
2022-11-21T11:23:55.568Z,20.23
2022-11-21T11:26:27.785Z,19.60
2022-11-21T11:29:08.731Z,18.05
2022-11-21T11:31:46.308Z,18.23
2022-11-21T11:34:18.124Z,17.90
2022-11-21T11:36:57.382Z,17.33
2022-11-21T11:39:37.286Z,18.02
2022-11-21T11:42:34.169Z,18.20
2022-11-21T11:45:35.278Z,16.75
2022-11-21T11:48:09.972Z,17.10
2022-11-21T11:50:40.851Z,14.48
2022-11-21T11:53:12.939Z,13.73
2022-11-21T11:58:18.848Z,16.08
2022-11-21T12:00:50.729Z,15.52
2022-11-21T12:03:22.845Z,15.73
2022-11-21T12:08:41.544Z,13.60
2022-11-21T12:11:37.871Z,14.77
2022-11-21T12:14:34.743Z,16.20
2022-11-21T12:17:06.765Z,15.40
2022-11-21T12:19:37.849Z,15.77
2022-11-21T12:22:09.153Z,16.05
2022-11-21T12:24:42.917Z,14.70
2022-11-21T12:27:23.060Z,16.25
2022-11-21T12:30:01.551Z,14.20
2022-11-21T12:32:40.085Z,12.52
2022-11-21T12:35:29.797Z,13.85
2022-11-21T12:38:06.148Z,12.25
2022-11-21T12:40:45.209Z,16.63
2022-11-21T12:43:20.812Z,14.65
2022-11-21T12:45:53.737Z,12.88
2022-11-21T12:48:47.788Z,15.25
2022-11-21T12:51:47.580Z,13.25
2022-11-21T12:54:33.502Z,15.35
2022-11-21T12:57:10.398Z,14.82
2022-11-21T12:59:52.153Z,14.15
2022-11-21T13:02:31.460Z,14.68
2022-11-21T13:05:01.290Z,13.05
2022-11-21T13:07:38.414Z,14.35
2022-11-21T13:10:13.691Z,14.15
2022-11-21T13:12:49.338Z,14.45
2022-11-21T13:15:23.222Z,15.68
2022-11-21T13:17:54.768Z,14.45
2022-11-21T13:20:28.224Z,15.35
2022-11-21T13:23:39.597Z,14.85
2022-11-21T13:26:52.521Z,15.40
2022-11-21T13:29:20.979Z,14.48
2022-11-21T13:31:49.529Z,14.85
2022-11-21T13:34:37.274Z,14.60
2022-11-21T13:37:06.495Z,14.93
2022-11-21T13:39:37.885Z,12.60
2022-11-21T13:42:25.776Z,12.82
2022-11-21T13:44:57.603Z,12.57
2022-11-21T13:48:13.638Z,12.98
2022-11-21T13:51:15.248Z,13.05
2022-11-21T13:53:58.438Z,12.57
2022-11-21T13:56:39.757Z,12.75
2022-11-21T13:59:21.364Z,12.85
2022-11-21T14:02:06.354Z,14.05
2022-11-21T14:04:45.087Z,11.77
2022-11-21T14:07:27.940Z,11.38
2022-11-21T14:09:57.123Z,12.13
2022-11-21T14:12:34.493Z,12.20
2022-11-21T14:15:18.891Z,14.55
2022-11-21T14:17:49.380Z,15.43
2022-11-21T14:20:20.893Z,16.05
2022-11-21T14:23:05.987Z,15.32
2022-11-21T14:25:43.870Z,15.43
2022-11-21T14:28:18.015Z,14.35
2022-11-21T14:30:46.361Z,15.30
2022-11-21T14:33:33.238Z,15.27
2022-11-21T14:36:06.685Z,16.45
2022-11-21T14:38:37.786Z,17.58
2022-11-21T14:41:28.057Z,17.08
2022-11-21T14:44:08.082Z,16.98
2022-11-21T14:46:37.337Z,17.48
2022-11-21T14:49:19.487Z,18.42
2022-11-21T14:51:49.307Z,19.05
2022-11-21T14:54:19.956Z,18.75
2022-11-21T14:56:49.276Z,17.88
2022-11-21T14:59:23.927Z,18.35
2022-11-21T15:01:56.928Z,21.38
2022-11-21T15:04:30.463Z,19.00
2022-11-21T15:06:58.888Z,19.27
2022-11-21T15:12:20.535Z,18.60
2022-11-21T15:14:54.689Z,18.55
2022-11-21T15:17:24.942Z,19.00
2022-11-21T15:20:17.334Z,20.98
2022-11-21T15:25:17.391Z,18.42
2022-11-21T15:27:47.180Z,18.40
2022-11-21T15:30:37.964Z,18.83
2022-11-21T15:33:10.249Z,20.67
2022-11-21T15:35:44.685Z,18.52
2022-11-21T15:38:18.217Z,20.02
2022-11-21T15:41:04.159Z,20.52
2022-11-21T15:43:43.900Z,20.58
2022-11-21T15:46:21.044Z,18.98
2022-11-21T15:48:50.631Z,19.98
2022-11-21T15:51:31.843Z,20.70
2022-11-21T15:54:08.821Z,21.30
2022-11-21T15:56:36.937Z,20.67
2022-11-21T15:59:06.035Z,21.95
2022-11-21T16:01:40.253Z,22.80
2022-11-21T16:04:11.032Z,24.52
2022-11-21T16:06:39.333Z,22.35
2022-11-21T16:09:08.365Z,22.15
2022-11-21T16:11:39.220Z,23.58
2022-11-21T16:14:09.026Z,22.70
2022-11-21T16:16:43.261Z,23.50
2022-11-21T16:19:12.485Z,23.30
2022-11-21T16:21:41.144Z,22.92
2022-11-21T16:24:09.303Z,24.60
2022-11-21T16:26:37.832Z,25.63
2022-11-21T16:29:06.517Z,26.25
2022-11-21T16:31:37.955Z,24.88
2022-11-21T16:34:07.387Z,26.58
2022-11-21T16:36:35.436Z,26.02
2022-11-21T16:39:08.899Z,24.38
2022-11-21T16:41:37.402Z,23.83
2022-11-21T16:44:06.527Z,25.98
2022-11-21T16:46:35.087Z,25.65
2022-11-21T16:49:04.556Z,26.83
2022-11-21T16:51:34.424Z,25.08
2022-11-21T16:54:07.334Z,26.15
2022-11-21T16:56:37.566Z,26.77
2022-11-21T16:59:05.545Z,24.65
2022-11-21T17:01:34.843Z,26.13
2022-11-21T17:04:02.909Z,27.65
2022-11-21T17:06:32.369Z,29.38
2022-11-21T17:09:02.265Z,28.02
2022-11-21T17:11:31.869Z,28.27
2022-11-21T17:14:02.116Z,26.67
2022-11-21T17:16:31.768Z,27.45
2022-11-21T17:19:01.246Z,26.83
2022-11-21T17:21:31.257Z,27.85
2022-11-21T17:24:00.380Z,27.38
2022-11-21T17:26:30.898Z,28.63
2022-11-21T17:29:03.796Z,27.98
2022-11-21T17:31:32.467Z,25.67
2022-11-21T17:34:09.275Z,27.45
2022-11-21T17:36:37.561Z,27.85
2022-11-21T17:39:05.573Z,26.10
2022-11-21T17:41:34.982Z,26.38
2022-11-21T17:44:03.129Z,24.98
2022-11-21T17:46:31.483Z,26.52
2022-11-21T17:49:00.254Z,26.73
2022-11-21T17:51:29.855Z,27.38
2022-11-21T17:53:58.872Z,26.30
2022-11-21T17:56:29.323Z,25.98
2022-11-21T17:58:59.072Z,24.95
2022-11-21T18:01:27.791Z,26.70
2022-11-21T18:03:58.211Z,26.60
2022-11-21T18:06:27.572Z,27.90
2022-11-21T18:08:56.810Z,27.67
2022-11-21T18:11:25.110Z,26.35
2022-11-21T18:13:54.494Z,26.77
2022-11-21T18:16:25.523Z,26.98
2022-11-21T18:18:54.668Z,27.95
2022-11-21T18:21:25.006Z,25.45
2022-11-21T18:23:54.043Z,28.10
2022-11-21T18:26:24.125Z,27.25
2022-11-21T18:29:13.565Z,26.90
2022-11-21T18:31:44.188Z,25.80
2022-11-21T18:34:13.184Z,27.02
2022-11-21T18:36:42.034Z,26.77
2022-11-21T18:39:15.096Z,26.05
2022-11-21T18:41:44.357Z,27.08
2022-11-21T18:44:20.072Z,27.42
2022-11-21T18:46:51.507Z,27.83
2022-11-21T18:49:19.842Z,29.75
2022-11-21T18:51:48.934Z,27.20
2022-11-21T18:54:17.331Z,25.40
2022-11-21T18:56:47.378Z,27.48
2022-11-21T18:59:15.821Z,26.98
2022-11-21T19:01:44.598Z,26.27
2022-11-21T19:04:14.087Z,30.25
2022-11-21T19:06:42.368Z,26.70
2022-11-21T19:09:11.625Z,27.40
2022-11-21T19:11:39.712Z,27.08
2022-11-21T19:14:08.882Z,25.88
2022-11-21T19:16:40.626Z,27.15
2022-11-21T19:22:01.121Z,25.73
2022-11-21T19:24:29.278Z,25.95
2022-11-21T19:26:57.264Z,24.90
2022-11-21T19:29:26.283Z,27.88
2022-11-21T19:31:55.851Z,25.42
2022-11-21T19:34:25.417Z,23.92
2022-11-21T19:36:55.051Z,24.42
2022-11-21T19:39:27.321Z,25.35
2022-11-21T19:42:00.614Z,23.75
2022-11-21T19:44:29.609Z,22.25
2022-11-21T19:46:57.624Z,21.25
2022-11-21T19:49:27.321Z,22.73
2022-11-21T19:51:55.495Z,21.98
2022-11-21T19:54:27.400Z,20.98
2022-11-21T19:57:02.381Z,19.80
2022-11-21T19:59:32.870Z,22.15
2022-11-21T20:02:01.961Z,21.80
2022-11-21T20:04:30.775Z,20.80
2022-11-21T20:07:06.274Z,18.75
2022-11-21T20:09:37.809Z,20.15
2022-11-21T20:12:06.478Z,20.83
2022-11-21T20:14:34.805Z,20.23
2022-11-21T20:17:02.767Z,21.10
2022-11-21T20:19:31.843Z,21.67
2022-11-21T20:22:00.186Z,20.70
2022-11-21T20:24:29.290Z,20.58
2022-11-21T20:26:59.304Z,21.65
2022-11-21T20:29:27.556Z,20.83
2022-11-21T20:31:59.059Z,22.88
2022-11-21T20:34:27.687Z,21.50
2022-11-21T20:36:56.218Z,20.90
2022-11-21T20:39:30.693Z,19.48
2022-11-21T20:42:01.658Z,18.92
2022-11-21T20:45:48.129Z,19.77
2022-11-21T20:47:18.856Z,19.08
2022-11-21T20:49:47.019Z,19.75
2022-11-21T20:55:03.333Z,19.50
2022-11-21T20:57:33.013Z,18.70
2022-11-21T21:00:01.014Z,17.63
2022-11-21T21:02:29.090Z,20.08
2022-11-21T21:04:57.642Z,17.33
2022-11-21T21:07:25.755Z,19.25
2022-11-21T21:09:53.985Z,18.70
2022-11-21T21:12:22.020Z,16.38
2022-11-21T21:14:51.448Z,17.90
2022-11-21T21:17:19.926Z,17.63
2022-11-21T21:19:49.047Z,15.27
2022-11-21T21:22:17.455Z,15.73
2022-11-21T21:24:45.896Z,16.30
2022-11-21T21:27:14.246Z,15.65
2022-11-21T21:29:42.248Z,13.38
2022-11-21T21:32:12.220Z,13.57
2022-11-21T21:34:41.269Z,14.27
2022-11-21T21:37:09.749Z,13.15
2022-11-21T21:39:38.034Z,12.80
2022-11-21T21:42:06.699Z,13.25
2022-11-21T21:44:37.479Z,11.55
2022-11-21T21:47:07.170Z,13.32
2022-11-21T21:49:36.944Z,12.43
2022-11-21T21:52:06.801Z,12.85
2022-11-21T21:54:37.340Z,13.43
2022-11-21T21:57:06.413Z,12.27
2022-11-21T21:59:34.523Z,13.50
2022-11-21T22:02:04.212Z,12.95
2022-11-21T22:04:33.829Z,13.32
2022-11-21T22:07:05.618Z,12.30
2022-11-21T22:09:33.909Z,14.57
2022-11-21T22:12:03.451Z,13.32
2022-11-21T22:14:31.765Z,13.48
2022-11-21T22:16:59.917Z,14.27
2022-11-21T22:19:28.138Z,14.25
2022-11-21T22:21:56.706Z,12.38
2022-11-21T22:24:27.304Z,13.48
2022-11-21T22:26:58.743Z,14.88
2022-11-21T22:29:27.278Z,13.48
2022-11-21T22:31:55.523Z,13.38
2022-11-21T22:34:23.895Z,12.63
2022-11-21T22:36:52.058Z,12.85
2022-11-21T22:39:20.219Z,13.02
2022-11-21T22:41:49.749Z,13.90
2022-11-21T22:44:19.084Z,13.23
2022-11-21T22:46:47.214Z,13.63
2022-11-21T22:49:16.696Z,13.70
2022-11-21T22:51:44.824Z,14.00
2022-11-21T22:54:13.774Z,13.32
2022-11-21T22:56:42.574Z,14.85
2022-11-21T22:59:17.184Z,15.65
2022-11-21T23:01:45.744Z,15.20
2022-11-21T23:04:29.665Z,16.38
2022-11-21T23:06:57.694Z,16.10
2022-11-21T23:09:25.969Z,14.93
2022-11-21T23:11:54.334Z,15.98
2022-11-21T23:14:24.021Z,16.67
2022-11-21T23:16:52.064Z,17.45
2022-11-21T23:19:20.049Z,15.68
2022-11-21T23:21:48.231Z,13.90
2022-11-21T23:24:16.578Z,17.20
2022-11-21T23:26:44.593Z,18.77
2022-11-21T23:29:12.997Z,18.63
2022-11-21T23:31:42.529Z,17.05
2022-11-21T23:34:12.378Z,17.25
2022-11-21T23:36:40.728Z,17.60
2022-11-21T23:39:09.208Z,17.42
2022-11-21T23:41:37.646Z,17.42
2022-11-21T23:44:06.394Z,18.33
2022-11-21T23:46:34.403Z,17.30
2022-11-21T23:49:04.132Z,17.23
2022-11-21T23:51:32.538Z,16.92
2022-11-21T23:54:03.851Z,18.08
2022-11-21T23:56:32.345Z,17.50
2022-11-21T23:59:00.413Z,18.58
